Portada
METAR-TAF:

METAR-TAF

Aeropuertos :

Treviso, Italia

latitud: 45-41N, longitud: 012-06E, altitud: 45 m

Observación

El informe se hizo hace 1 hora y 11 minutos, a las 23:55 UTC
Temperatura 18°C
Humedad 100%
Presión 1011 hPa
Visibilidad 10 km o más
sin nubes por debajo de 1500 m y sin presencia de cumulonimbus.

METAR: LIPS 022355Z /////KT CAVOK 18/18 Q1011 RMK FEW FEW110 VIS MIN 9999 WIND THR26 36006KT WIND THR08 03006KT BLU

Hora: 03:06 (01:06 UTC)

Pronóstico

El informe se hizo hace 2 horas y 6 minutos, a las 23:00 UTC
Pronóstico válido del 03 a las 00 UTC al 03 a las 09 UTC
Viento 6 kt del sur-suroeste
Visibilidad 10 km o más
Cielo nuboso a una altura de 5000 ft

TAF: LIPS 022300Z 0300/0309 21006KT 9999 BKN050

Observaciones y pronósticos meteorológicos de más de 4000 aeropuertos (mensajes METAR y TAF).

Los puntos amarillos y rojos representan las estaciones disponibles.

Ponga el ratón en el punto deseado para ver el nombre de la estación.

Haga clic para ver las observaciones y los pronósticos meteorológicos.

Para cambiar el mapa : haga clic en los botones verdes con una cruz de color negro para hacer un zoom, en el botón verde con un guión para alejar o en las flechas verdes para mapas adyacentes.


METAR-TAF: